Time;durP1;ratioP1;P1;durP2;ratioP2;P2;SDS_P1;SDS_P2;PMS_P1;PMS_P2;Temp;Humidity;BMP_temperature;BMP_pressure;BME280_temperature;BME280_humidity;BME280_pressure;Samples;Min_cycle;Max_cycle;Signal;HPM_P1;HPM_P2
2022/01/25 00:08:22;;;;;;;;;;;4.80;99.90;;;;;;5173158;27;19923;-65
2022/01/25 00:15:49;;;;;;;;;;;4.90;99.90;;;;;;5164280;27;20045;-65
2022/01/25 00:26:23;;;;;;;;;;;4.70;99.90;;;;;;5165272;27;20271;-64
2022/01/25 00:29:14;;;;;;;;;;;4.70;99.90;;;;;;5155402;27;19923;-65
2022/01/25 00:31:36;;;;;;;;;;;4.70;99.90;;;;;;5154107;27;19966;-66
2022/01/25 00:34:02;;;;;;;;;;;4.70;99.90;;;;;;5173511;27;19923;-65
2022/01/25 00:36:28;;;;;;;;;;;4.70;99.90;;;;;;5154945;27;20406;-66
2022/01/25 00:38:54;;;;;;;;;;;4.70;99.90;;;;;;5140273;27;19923;-65
2022/01/25 00:41:20;;;;;;;;;;;4.70;99.90;;;;;;5176084;27;19967;-65
2022/01/25 00:43:46;;;;;;;;;;;4.70;99.90;;;;;;5174590;27;20005;-65
2022/01/25 00:46:12;;;;;;;;;;;4.80;99.90;;;;;;5175139;27;19930;-66
2022/01/25 00:53:58;;;;;;;;;;;4.70;99.90;;;;;;5145783;27;19930;-66
2022/01/25 00:56:26;;;;;;;;;;;4.70;99.90;;;;;;5155799;27;20380;-66
2022/01/25 00:58:52;;;;;;;;;;;4.70;99.90;;;;;;5137248;27;20387;-66
2022/01/25 01:01:19;;;;;;;;;;;4.80;99.90;;;;;;5154854;27;19927;-66
2022/01/25 01:03:45;;;;;;;;;;;4.80;99.90;;;;;;5143121;27;20291;-65
2022/01/25 01:06:11;;;;;;;;;;;4.70;99.90;;;;;;5156099;27;19923;-65
2022/01/25 01:08:36;;;;;;;;;;;4.70;99.90;;;;;;5135976;27;20316;-66
2022/01/25 01:11:03;;;;;;;;;;;4.70;99.90;;;;;;5155907;27;19923;-64
2022/01/25 01:33:16;;;;;;;;;;;4.60;99.90;;;;;;5135776;27;20029;-64
2022/01/25 01:37:54;;;;;;;;;;;4.70;99.90;;;;;;5154129;27;19992;-65
2022/01/25 01:43:20;;;;;;;;;;;4.60;99.90;;;;;;5129462;27;19930;-65
2022/01/25 01:48:33;;;;;;;;;;;4.60;99.90;;;;;;5175019;27;20011;-66
2022/01/25 01:51:06;;;;;;;;;;;4.60;99.90;;;;;;5174613;27;19964;-65
2022/01/25 01:53:32;;;;;;;;;;;4.60;99.90;;;;;;5149974;27;20014;-65
2022/01/25 01:55:58;;;;;;;;;;;4.60;99.90;;;;;;5157384;27;19927;-65
2022/01/25 01:58:23;;;;;;;;;;;4.60;99.90;;;;;;5155972;27;20038;-65
2022/01/25 02:00:49;;;;;;;;;;;4.60;99.90;;;;;;5155649;27;19943;-65
2022/01/25 02:03:15;;;;;;;;;;;4.60;99.90;;;;;;5171833;27;19933;-65
2022/01/25 02:05:41;;;;;;;;;;;4.60;99.90;;;;;;5135111;27;19923;-65
2022/01/25 02:08:06;;;;;;;;;;;4.60;99.90;;;;;;5122555;27;19927;-65
2022/01/25 02:10:32;;;;;;;;;;;4.60;99.90;;;;;;5135088;27;19923;-65
2022/01/25 02:12:58;;;;;;;;;;;4.60;99.90;;;;;;5154762;27;19926;-65
2022/01/25 02:15:28;;;;;;;;;;;4.60;99.90;;;;;;5174456;27;19922;-65
2022/01/25 02:23:24;;;;;;;;;;;4.60;99.90;;;;;;5149789;27;19926;-65
2022/01/25 02:25:53;;;;;;;;;;;4.80;99.90;;;;;;5173496;27;19923;-65
2022/01/25 02:28:19;;;;;;;;;;;4.60;99.90;;;;;;5152779;27;19934;-64
2022/01/25 02:30:45;;;;;;;;;;;4.60;99.90;;;;;;5173599;27;19934;-67
2022/01/25 02:33:11;;;;;;;;;;;4.60;99.90;;;;;;5166047;27;19927;-66
2022/01/25 02:35:36;;;;;;;;;;;4.60;99.90;;;;;;5153205;27;20018;-65
2022/01/25 02:38:02;;;;;;;;;;;4.60;99.90;;;;;;5162946;27;19941;-65
2022/01/25 02:40:28;;;;;;;;;;;4.60;99.90;;;;;;5145236;27;20299;-65
2022/01/25 02:42:54;;;;;;;;;;;4.60;99.90;;;;;;5152420;27;19923;-65
2022/01/25 02:45:21;;;;;;;;;;;4.60;99.90;;;;;;5134734;27;19923;-65
2022/01/25 02:50:31;;;;;;;;;;;4.60;99.90;;;;;;5135376;27;19927;-65
2022/01/25 02:52:57;;;;;;;;;;;4.60;99.90;;;;;;5152291;27;19927;-65
2022/01/25 02:55:22;;;;;;;;;;;4.60;99.90;;;;;;5126760;27;19923;-65
2022/01/25 02:57:48;;;;;;;;;;;4.50;99.90;;;;;;5154670;27;20063;-65
2022/01/25 03:00:14;;;;;;;;;;;4.50;99.90;;;;;;5155245;27;20364;-65
2022/01/25 03:02:40;;;;;;;;;;;4.50;99.90;;;;;;5173220;27;19930;-65
2022/01/25 03:05:06;;;;;;;;;;;4.50;99.90;;;;;;5154766;27;20067;-65
2022/01/25 03:07:33;;;;;;;;;;;4.50;99.90;;;;;;5154952;27;20347;-66
2022/01/25 03:09:59;;;;;;;;;;;4.50;99.90;;;;;;5169626;27;19930;-65
2022/01/25 03:12:42;;;;;;;;;;;4.50;99.90;;;;;;5168159;27;19927;-65
2022/01/25 03:17:57;;;;;;;;;;;4.50;99.90;;;;;;5134660;27;19934;-65
2022/01/25 03:20:36;;;;;;;;;;;4.50;99.90;;;;;;5154212;27;19934;-65
2022/01/25 03:23:16;;;;;;;;;;;4.50;99.90;;;;;;5152015;27;19934;-66
2022/01/25 03:25:41;;;;;;;;;;;4.50;99.90;;;;;;5133725;27;20009;-65
2022/01/25 03:28:07;;;;;;;;;;;4.60;99.90;;;;;;5133709;27;19969;-66
2022/01/25 03:30:32;;;;;;;;;;;4.60;99.90;;;;;;5152588;27;20247;-66
2022/01/25 03:32:58;;;;;;;;;;;4.50;99.90;;;;;;5151968;27;19943;-66
2022/01/25 03:35:23;;;;;;;;;;;4.50;99.90;;;;;;5133944;27;19923;-67
2022/01/25 03:37:49;;;;;;;;;;;4.50;99.90;;;;;;5152168;27;20268;-71
2022/01/25 03:40:15;;;;;;;;;;;4.50;99.90;;;;;;5158479;27;20002;-65
2022/01/25 03:42:40;;;;;;;;;;;4.50;99.90;;;;;;5154557;27;19929;-64
2022/01/25 03:45:07;;;;;;;;;;;4.60;99.90;;;;;;5156247;27;19933;-64
2022/01/25 03:47:46;;;;;;;;;;;4.50;99.90;;;;;;5156293;27;20375;-65
2022/01/25 03:50:12;;;;;;;;;;;4.50;99.90;;;;;;5156812;27;19984;-65
2022/01/25 03:52:38;;;;;;;;;;;4.50;99.90;;;;;;5160261;27;20429;-66
2022/01/25 03:55:04;;;;;;;;;;;4.50;99.90;;;;;;5154860;27;19927;-65
2022/01/25 03:57:30;;;;;;;;;;;4.50;99.90;;;;;;5119753;27;19931;-65
2022/01/25 04:00:00;;;;;;;;;;;4.50;99.90;;;;;;5156577;27;19923;-65
2022/01/25 04:02:28;;;;;;;;;;;4.40;99.90;;;;;;5136533;27;19935;-65
2022/01/25 04:04:53;;;;;;;;;;;4.50;99.90;;;;;;5158646;27;19931;-71
2022/01/25 04:07:28;;;;;;;;;;;4.40;99.90;;;;;;5155381;27;19968;-64
2022/01/25 04:09:53;;;;;;;;;;;4.40;99.90;;;;;;5136392;27;20001;-70
2022/01/25 04:12:19;;;;;;;;;;;4.40;99.90;;;;;;5137380;27;20022;-66
2022/01/25 04:14:45;;;;;;;;;;;4.40;99.90;;;;;;5154537;27;19923;-65
2022/01/25 04:17:12;;;;;;;;;;;4.40;99.90;;;;;;5154283;27;19923;-65
2022/01/25 04:19:45;;;;;;;;;;;4.40;99.90;;;;;;5129687;27;19930;-65
2022/01/25 04:27:28;;;;;;;;;;;4.40;99.90;;;;;;5176543;27;19930;-65
2022/01/25 04:29:53;;;;;;;;;;;4.40;99.90;;;;;;5143576;27;19946;-64
2022/01/25 04:32:20;;;;;;;;;;;4.40;99.90;;;;;;5154807;27;19923;-65
2022/01/25 04:35:07;;;;;;;;;;;4.40;99.90;;;;;;5142739;27;19923;-65
2022/01/25 04:51:28;;;;;;;;;;;4.40;99.90;;;;;;5155472;27;19923;-65
2022/01/25 04:54:04;;;;;;;;;;;4.40;99.90;;;;;;5139095;27;20109;-67
2022/01/25 05:01:27;;;;;;;;;;;4.40;99.90;;;;;;5154781;27;19995;-64
2022/01/25 05:06:19;;;;;;;;;;;4.40;99.90;;;;;;5147883;27;20009;-64
2022/01/25 05:08:50;;;;;;;;;;;4.40;99.90;;;;;;5167775;27;19949;-65
2022/01/25 05:11:26;;;;;;;;;;;4.40;99.90;;;;;;5154318;27;19950;-65
2022/01/25 05:14:18;;;;;;;;;;;4.40;99.90;;;;;;5154710;27;19927;-65
2022/01/25 05:16:49;;;;;;;;;;;4.50;99.90;;;;;;5146106;27;19923;-65
2022/01/25 05:24:27;;;;;;;;;;;4.50;99.90;;;;;;5135891;27;19981;-65
2022/01/25 05:26:53;;;;;;;;;;;4.40;99.90;;;;;;5143568;27;20379;-64
2022/01/25 05:29:19;;;;;;;;;;;4.40;99.90;;;;;;5138423;27;20070;-65
2022/01/25 05:31:45;;;;;;;;;;;4.50;99.90;;;;;;5165791;27;20294;-64
2022/01/25 05:34:11;;;;;;;;;;;4.50;99.90;;;;;;5155980;27;20034;-65
2022/01/25 05:36:36;;;;;;;;;;;4.40;99.90;;;;;;5154863;27;20343;-65
2022/01/25 05:39:11;;;;;;;;;;;4.50;99.90;;;;;;5142745;27;20053;-65
2022/01/25 05:41:37;;;;;;;;;;;4.50;99.90;;;;;;5160447;27;19926;-65
2022/01/25 05:44:25;;;;;;;;;;;4.50;99.90;;;;;;5150518;27;19927;-65
2022/01/25 05:49:23;;;;;;;;;;;4.50;99.90;;;;;;5153986;27;19930;-66
2022/01/25 05:51:49;;;;;;;;;;;4.50;99.90;;;;;;5155172;27;20056;-65
2022/01/25 05:54:14;;;;;;;;;;;4.50;99.90;;;;;;5160639;27;19923;-65
2022/01/25 05:56:40;;;;;;;;;;;4.50;99.90;;;;;;5135740;27;19930;-64
2022/01/25 05:59:05;;;;;;;;;;;4.50;99.90;;;;;;5155038;27;19927;-70
2022/01/25 06:01:32;;;;;;;;;;;4.50;99.90;;;;;;5153209;27;19927;-66
2022/01/25 06:03:58;;;;;;;;;;;4.50;99.90;;;;;;5154652;27;19945;-66
2022/01/25 06:06:24;;;;;;;;;;;4.60;99.90;;;;;;5135783;27;19923;-66
2022/01/25 06:08:49;;;;;;;;;;;4.50;99.90;;;;;;5139561;27;19998;-66
2022/01/25 06:11:15;;;;;;;;;;;4.50;99.90;;;;;;5158298;27;20351;-64
2022/01/25 06:13:40;;;;;;;;;;;4.50;99.90;;;;;;5153501;27;20372;-65
2022/01/25 06:16:06;;;;;;;;;;;4.60;99.90;;;;;;5154868;27;19931;-65
2022/01/25 06:18:32;;;;;;;;;;;4.60;99.90;;;;;;5154064;27;19923;-66
2022/01/25 06:20:57;;;;;;;;;;;4.60;99.90;;;;;;5154051;27;20360;-66
2022/01/25 06:23:23;;;;;;;;;;;4.60;99.90;;;;;;5152825;27;19923;-66
2022/01/25 06:25:49;;;;;;;;;;;4.50;99.90;;;;;;5174389;27;19923;-65
2022/01/25 06:28:14;;;;;;;;;;;4.70;99.90;;;;;;5172560;27;19945;-63
2022/01/25 06:30:40;;;;;;;;;;;4.60;99.90;;;;;;5159820;27;19923;-65
2022/01/25 06:33:09;;;;;;;;;;;4.60;99.90;;;;;;5124041;27;19949;-64
2022/01/25 06:35:34;;;;;;;;;;;4.60;99.90;;;;;;5154448;27;19958;-65
2022/01/25 06:38:00;;;;;;;;;;;4.60;99.90;;;;;;5174230;27;20018;-64
2022/01/25 06:40:26;;;;;;;;;;;4.60;99.90;;;;;;5173443;27;19923;-65
2022/01/25 06:42:52;;;;;;;;;;;4.50;99.90;;;;;;5114374;27;19949;-66
2022/01/25 06:45:20;;;;;;;;;;;4.60;99.90;;;;;;5150081;27;19930;-64
2022/01/25 06:47:46;;;;;;;;;;;4.60;99.90;;;;;;5155503;27;20368;-64
2022/01/25 06:50:12;;;;;;;;;;;4.60;99.90;;;;;;5138311;27;20283;-65
2022/01/25 06:52:40;;;;;;;;;;;4.40;99.90;;;;;;5173534;27;20027;-65
2022/01/25 06:55:07;;;;;;;;;;;4.60;99.90;;;;;;5147566;27;19923;-65
2022/01/25 06:57:32;;;;;;;;;;;4.50;99.90;;;;;;5173195;27;20009;-66
2022/01/25 06:59:58;;;;;;;;;;;4.50;99.90;;;;;;5173837;27;20021;-65
2022/01/25 07:02:24;;;;;;;;;;;4.50;99.90;;;;;;5168602;27;19923;-66
2022/01/25 07:04:49;;;;;;;;;;;4.50;99.90;;;;;;5136696;27;20367;-65
2022/01/25 07:07:15;;;;;;;;;;;4.60;99.90;;;;;;5143465;27;19970;-70
2022/01/25 07:09:41;;;;;;;;;;;4.50;99.90;;;;;;5130912;28;20029;-65
2022/01/25 07:12:07;;;;;;;;;;;4.50;99.90;;;;;;5132268;27;20006;-65
2022/01/25 07:14:32;;;;;;;;;;;4.50;99.90;;;;;;5132593;27;19924;-65
2022/01/25 07:16:59;;;;;;;;;;;4.50;99.90;;;;;;5114168;28;20010;-64
2022/01/25 07:19:25;;;;;;;;;;;4.50;99.90;;;;;;5137789;27;19923;-64
2022/01/25 07:21:51;;;;;;;;;;;4.50;99.90;;;;;;5156922;27;19976;-65
2022/01/25 07:24:18;;;;;;;;;;;4.50;99.90;;;;;;5156811;27;19930;-70
2022/01/25 07:26:43;;;;;;;;;;;4.50;99.90;;;;;;5136988;27;19927;-65
2022/01/25 07:29:09;;;;;;;;;;;4.50;99.90;;;;;;5135943;27;19938;-65
2022/01/25 07:31:34;;;;;;;;;;;4.50;99.90;;;;;;5143371;27;19979;-65
2022/01/25 07:34:00;;;;;;;;;;;4.50;99.90;;;;;;5156565;27;20268;-66
2022/01/25 07:36:26;;;;;;;;;;;4.50;99.90;;;;;;5146811;27;19930;-66
2022/01/25 07:38:52;;;;;;;;;;;4.50;99.90;;;;;;5116938;27;19923;-65
2022/01/25 07:41:17;;;;;;;;;;;4.40;99.90;;;;;;5134167;27;20359;-65
2022/01/25 07:43:43;;;;;;;;;;;4.50;99.90;;;;;;5136394;27;19928;-66
2022/01/25 07:46:09;;;;;;;;;;;4.50;99.90;;;;;;5137942;27;19946;-67
2022/01/25 07:48:35;;;;;;;;;;;4.40;99.90;;;;;;5137972;27;19933;-66
2022/01/25 07:51:00;;;;;;;;;;;4.50;99.90;;;;;;5134633;27;20006;-65
2022/01/25 07:53:26;;;;;;;;;;;4.40;99.90;;;;;;5136496;27;20046;-64
2022/01/25 07:55:52;;;;;;;;;;;4.50;99.90;;;;;;5134333;27;20027;-64
2022/01/25 07:58:17;;;;;;;;;;;4.50;99.90;;;;;;5133245;27;19923;-65
2022/01/25 08:00:43;;;;;;;;;;;4.50;99.90;;;;;;5140676;27;19931;-64
2022/01/25 08:03:09;;;;;;;;;;;4.40;99.90;;;;;;5138878;27;19949;-64
2022/01/25 08:05:34;;;;;;;;;;;4.40;99.90;;;;;;5140244;27;19939;-65
2022/01/25 08:08:01;;;;;;;;;;;4.40;99.90;;;;;;5123052;27;19972;-65
2022/01/25 08:10:27;;;;;;;;;;;4.40;99.90;;;;;;5133311;27;20299;-63
2022/01/25 08:12:53;;;;;;;;;;;4.40;99.90;;;;;;5140500;27;20438;-64
2022/01/25 08:15:18;;;;;;;;;;;4.40;99.90;;;;;;5135241;27;19988;-65
2022/01/25 08:17:44;;;;;;;;;;;4.40;99.90;;;;;;5133404;27;19980;-65
2022/01/25 08:20:10;;;;;;;;;;;4.40;99.90;;;;;;5136970;27;20017;-66
2022/01/25 08:22:36;;;;;;;;;;;4.40;99.90;;;;;;5133664;27;20399;-65
2022/01/25 08:25:03;;;;;;;;;;;4.40;99.90;;;;;;5148818;27;19923;-65
2022/01/25 08:27:28;;;;;;;;;;;4.40;99.90;;;;;;5148185;27;20360;-65
2022/01/25 08:29:54;;;;;;;;;;;4.40;99.90;;;;;;5114877;27;19970;-65
2022/01/25 08:32:20;;;;;;;;;;;4.40;99.90;;;;;;5134979;27;19951;-66
2022/01/25 08:34:46;;;;;;;;;;;4.40;99.90;;;;;;5117205;27;19923;-66
2022/01/25 08:37:12;;;;;;;;;;;4.40;99.90;;;;;;5135329;27;19946;-66
2022/01/25 08:39:38;;;;;;;;;;;4.40;99.90;;;;;;5132991;27;19930;-66
2022/01/25 08:42:04;;;;;;;;;;;4.50;99.90;;;;;;5115925;27;20459;-65
2022/01/25 08:44:30;;;;;;;;;;;4.50;99.90;;;;;;5134077;27;19923;-70
2022/01/25 08:46:56;;;;;;;;;;;4.50;99.90;;;;;;5133339;27;20014;-67
2022/01/25 08:49:22;;;;;;;;;;;4.50;99.90;;;;;;5155274;27;19938;-65
2022/01/25 08:51:50;;;;;;;;;;;4.50;99.90;;;;;;5136768;27;19934;-65
2022/01/25 08:54:16;;;;;;;;;;;4.50;99.90;;;;;;5134645;27;19927;-66
2022/01/25 08:56:42;;;;;;;;;;;4.50;99.90;;;;;;5135144;27;19931;-64
2022/01/25 08:59:08;;;;;;;;;;;4.50;99.90;;;;;;5138303;27;19923;-65
2022/01/25 09:01:34;;;;;;;;;;;4.50;99.90;;;;;;5143192;27;20071;-64
2022/01/25 09:04:01;;;;;;;;;;;4.50;99.90;;;;;;5151839;27;19957;-66
2022/01/25 09:06:26;;;;;;;;;;;4.50;99.90;;;;;;5144703;27;20294;-65
2022/01/25 09:08:57;;;;;;;;;;;4.50;99.90;;;;;;5146150;27;19923;-65
2022/01/25 09:11:23;;;;;;;;;;;4.50;99.90;;;;;;5152063;27;20005;-66
2022/01/25 09:13:49;;;;;;;;;;;4.50;99.90;;;;;;5145821;27;20060;-65
2022/01/25 09:16:14;;;;;;;;;;;4.50;99.90;;;;;;5143901;27;19930;-65
2022/01/25 09:18:40;;;;;;;;;;;4.50;99.90;;;;;;5175402;27;19927;-66
2022/01/25 09:21:06;;;;;;;;;;;4.50;99.90;;;;;;5162203;27;20593;-64
2022/01/25 09:23:32;;;;;;;;;;;4.50;99.90;;;;;;5119201;27;19927;-66
2022/01/25 09:25:57;;;;;;;;;;;4.50;99.90;;;;;;5119254;27;20022;-66
2022/01/25 09:28:23;;;;;;;;;;;4.50;99.90;;;;;;5136510;27;20010;-65
2022/01/25 09:30:49;;;;;;;;;;;4.50;99.90;;;;;;5153553;27;19923;-64
2022/01/25 09:33:15;;;;;;;;;;;4.50;99.90;;;;;;5111798;27;19923;-65
2022/01/25 09:35:41;;;;;;;;;;;4.50;99.90;;;;;;5158471;27;19923;-65
2022/01/25 09:38:06;;;;;;;;;;;4.80;99.90;;;;;;5171829;27;20225;-63
2022/01/25 09:40:32;;;;;;;;;;;4.50;99.90;;;;;;5142176;27;19967;-65
2022/01/25 09:42:58;;;;;;;;;;;4.50;99.90;;;;;;5135315;27;19930;-66
2022/01/25 09:45:25;;;;;;;;;;;4.50;99.90;;;;;;5154470;27;19923;-67
2022/01/25 09:47:51;;;;;;;;;;;4.50;99.90;;;;;;5158511;27;20291;-68
2022/01/25 09:50:17;;;;;;;;;;;4.50;99.90;;;;;;5133265;27;19999;-70
2022/01/25 09:52:43;;;;;;;;;;;4.50;99.90;;;;;;5153486;27;20009;-67
2022/01/25 09:55:20;;;;;;;;;;;4.50;99.90;;;;;;5135464;27;19923;-67
2022/01/25 09:57:46;;;;;;;;;;;4.60;99.90;;;;;;5153464;27;19927;-66
2022/01/25 10:00:13;;;;;;;;;;;4.50;99.90;;;;;;5136742;27;19979;-68
2022/01/25 10:02:48;;;;;;;;;;;4.50;99.90;;;;;;5172247;27;19922;-73
2022/01/25 10:05:18;;;;;;;;;;;4.50;99.90;;;;;;5144051;27;19927;-68
2022/01/25 10:07:53;;;;;;;;;;;4.50;99.90;;;;;;5134859;27;19972;-68
2022/01/25 10:10:19;;;;;;;;;;;4.50;99.90;;;;;;5152354;27;19922;-67
2022/01/25 10:12:45;;;;;;;;;;;4.50;99.90;;;;;;5172121;27;19930;-69
2022/01/25 10:15:10;;;;;;;;;;;4.50;99.90;;;;;;5151550;27;19923;-68
2022/01/25 10:17:36;;;;;;;;;;;4.60;99.90;;;;;;5126663;27;19938;-69
2022/01/25 10:20:05;;;;;;;;;;;4.60;99.90;;;;;;5133733;27;19931;-70
2022/01/25 10:22:46;;;;;;;;;;;4.60;99.90;;;;;;5159993;27;19977;-69
2022/01/25 10:25:12;;;;;;;;;;;4.60;99.90;;;;;;5163015;27;20441;-69
2022/01/25 10:27:59;;;;;;;;;;;4.60;99.90;;;;;;5153675;27;20010;-69
2022/01/25 10:30:25;;;;;;;;;;;4.60;99.90;;;;;;5132090;27;19948;-69
2022/01/25 10:32:51;;;;;;;;;;;4.70;99.90;;;;;;5152731;27;19924;-68
2022/01/25 10:35:17;;;;;;;;;;;4.60;99.90;;;;;;5158886;27;20399;-68
2022/01/25 10:37:43;;;;;;;;;;;4.60;99.90;;;;;;5152968;27;19989;-72
2022/01/25 10:40:09;;;;;;;;;;;4.60;99.90;;;;;;5135247;27;20021;-70
2022/01/25 10:42:35;;;;;;;;;;;4.60;99.90;;;;;;5152714;27;19972;-67
2022/01/25 10:45:04;;;;;;;;;;;4.60;99.90;;;;;;5152749;27;19967;-68
2022/01/25 10:47:50;;;;;;;;;;;4.60;99.90;;;;;;5100671;27;19927;-67
2022/01/25 10:50:23;;;;;;;;;;;4.60;99.90;;;;;;5134458;27;19923;-68
2022/01/25 10:53:07;;;;;;;;;;;4.60;99.90;;;;;;5164440;27;20450;-69
2022/01/25 10:55:36;;;;;;;;;;;4.70;99.90;;;;;;5142738;27;20009;-67
2022/01/25 10:58:02;;;;;;;;;;;4.70;99.90;;;;;;5152114;27;20390;-73
2022/01/25 11:00:33;;;;;;;;;;;4.70;99.90;;;;;;5117198;27;19974;-68
2022/01/25 11:02:59;;;;;;;;;;;4.70;99.90;;;;;;5150403;27;19928;-68
2022/01/25 11:05:30;;;;;;;;;;;4.70;99.90;;;;;;5147454;27;20241;-69
2022/01/25 11:07:56;;;;;;;;;;;4.70;99.90;;;;;;5131791;27;19924;-68
2022/01/25 11:10:21;;;;;;;;;;;4.70;99.90;;;;;;5130520;28;19949;-68
2022/01/25 11:13:03;;;;;;;;;;;4.70;99.90;;;;;;5130292;28;20025;-73
2022/01/25 11:15:29;;;;;;;;;;;4.70;99.90;;;;;;5133068;27;20022;-70
2022/01/25 11:17:55;;;;;;;;;;;4.70;99.90;;;;;;5150376;27;20022;-67
2022/01/25 11:20:21;;;;;;;;;;;4.70;99.90;;;;;;5152312;27;19974;-67
2022/01/25 11:22:47;;;;;;;;;;;4.80;99.90;;;;;;5152405;27;20382;-67
2022/01/25 11:25:14;;;;;;;;;;;4.70;99.90;;;;;;5144944;27;19930;-67
2022/01/25 11:27:41;;;;;;;;;;;4.70;99.90;;;;;;5144292;27;19980;-66
2022/01/25 11:30:10;;;;;;;;;;;4.70;99.90;;;;;;5133505;27;19931;-66
2022/01/25 11:32:40;;;;;;;;;;;4.70;99.90;;;;;;5149999;27;20018;-67
2022/01/25 11:35:08;;;;;;;;;;;4.80;99.90;;;;;;5152657;27;20283;-66
2022/01/25 11:37:35;;;;;;;;;;;4.80;99.90;;;;;;5145242;27;19992;-65
2022/01/25 11:40:01;;;;;;;;;;;4.80;99.90;;;;;;5151545;27;19923;-67
2022/01/25 11:42:34;;;;;;;;;;;4.80;99.90;;;;;;5116862;28;19934;-67
2022/01/25 11:45:00;;;;;;;;;;;4.70;99.90;;;;;;5123260;27;19923;-68
2022/01/25 11:47:33;;;;;;;;;;;4.70;99.90;;;;;;5120346;27;19938;-67
2022/01/25 11:50:01;;;;;;;;;;;4.70;99.90;;;;;;5151649;27;19929;-68
2022/01/25 11:52:27;;;;;;;;;;;4.70;99.90;;;;;;5152263;27;20344;-68
2022/01/25 11:54:54;;;;;;;;;;;4.70;99.90;;;;;;5149126;27;19923;-69
2022/01/25 11:57:22;;;;;;;;;;;4.80;99.90;;;;;;5152438;27;19927;-68
2022/01/25 11:59:51;;;;;;;;;;;4.80;99.90;;;;;;5134385;27;19928;-68
2022/01/25 12:02:36;;;;;;;;;;;4.80;99.90;;;;;;5129694;27;19999;-66
2022/01/25 12:05:05;;;;;;;;;;;4.80;99.90;;;;;;5133609;27;20304;-68
2022/01/25 12:07:38;;;;;;;;;;;4.80;99.90;;;;;;5137596;27;20311;-67
2022/01/25 12:10:13;;;;;;;;;;;4.80;99.90;;;;;;5153341;27;19955;-67
2022/01/25 12:12:40;;;;;;;;;;;4.80;99.90;;;;;;5119625;27;20341;-68
2022/01/25 12:15:11;;;;;;;;;;;4.80;99.90;;;;;;5144158;27;19982;-67
2022/01/25 12:17:37;;;;;;;;;;;4.80;99.90;;;;;;5156231;27;19927;-68
2022/01/25 12:20:16;;;;;;;;;;;4.80;99.90;;;;;;5126751;27;20010;-67
2022/01/25 12:22:46;;;;;;;;;;;4.80;99.90;;;;;;5133976;27;20003;-68
2022/01/25 12:25:17;;;;;;;;;;;4.70;99.90;;;;;;5135223;27;19931;-68
2022/01/25 12:27:58;;;;;;;;;;;4.70;99.90;;;;;;5135229;27;19924;-67
2022/01/25 12:30:27;;;;;;;;;;;4.70;99.90;;;;;;5144556;27;20122;-70
2022/01/25 12:32:55;;;;;;;;;;;4.80;99.90;;;;;;5143115;27;20059;-68
2022/01/25 12:35:36;;;;;;;;;;;4.70;99.90;;;;;;5155188;27;19969;-68
2022/01/25 12:38:06;;;;;;;;;;;4.70;99.90;;;;;;5145660;27;19927;-69
2022/01/25 12:40:34;;;;;;;;;;;4.60;99.90;;;;;;5144765;27;19928;-66
2022/01/25 12:43:02;;;;;;;;;;;4.70;99.90;;;;;;5133116;27;19923;-72
2022/01/25 12:45:29;;;;;;;;;;;4.60;99.90;;;;;;5134066;27;20373;-69
2022/01/25 12:47:54;;;;;;;;;;;4.60;99.90;;;;;;5135048;27;20022;-69
2022/01/25 12:50:20;;;;;;;;;;;4.60;99.90;;;;;;5132621;27;20084;-70
2022/01/25 12:52:46;;;;;;;;;;;4.60;99.90;;;;;;5140795;27;20435;-69
2022/01/25 12:55:12;;;;;;;;;;;4.60;99.90;;;;;;5154042;27;19949;-70
2022/01/25 12:57:44;;;;;;;;;;;4.60;99.90;;;;;;5149847;27;19923;-70
2022/01/25 13:00:10;;;;;;;;;;;4.70;99.90;;;;;;5148951;27;19924;-70
2022/01/25 13:02:35;;;;;;;;;;;4.60;99.90;;;;;;5136338;27;20082;-69
2022/01/25 13:05:12;;;;;;;;;;;4.60;99.90;;;;;;5157244;27;20009;-77
2022/01/25 13:07:38;;;;;;;;;;;4.70;99.90;;;;;;5157925;27;19922;-70
2022/01/25 13:10:06;;;;;;;;;;;4.70;99.90;;;;;;5144051;27;19948;-78
2022/01/25 13:12:36;;;;;;;;;;;4.70;99.90;;;;;;5170485;27;19922;-70
2022/01/25 13:15:27;;;;;;;;;;;4.70;99.90;;;;;;5139881;27;19938;-77
2022/01/25 13:17:51;;;;;;;;;;;4.70;99.90;;;;;;5175382;27;19923;-70
2022/01/25 13:20:21;;;;;;;;;;;4.70;99.90;;;;;;5163969;27;19927;-70
2022/01/25 13:22:47;;;;;;;;;;;4.70;99.90;;;;;;5146186;27;20001;-70
2022/01/25 13:27:51;;;;;;;;;;;4.70;99.90;;;;;;5154802;27;19930;-69
2022/01/25 13:33:02;;;;;;;;;;;4.80;99.90;;;;;;5155766;27;19927;-69
2022/01/25 13:38:14;;;;;;;;;;;4.80;99.90;;;;;;5153486;27;20230;-69
2022/01/25 13:41:01;;;;;;;;;;;4.80;99.90;;;;;;5153008;27;19927;-69
2022/01/25 13:45:42;;;;;;;;;;;4.80;99.90;;;;;;5157851;27;20244;-70
2022/01/25 13:46:18;;;;;;;;;;;4.80;99.90;;;;;;5154054;27;20034;-69
2022/01/25 13:48:44;;;;;;;;;;;4.80;99.90;;;;;;5140102;27;19927;-68
2022/01/25 13:51:11;;;;;;;;;;;4.80;99.90;;;;;;5142490;27;19923;-68
2022/01/25 13:53:37;;;;;;;;;;;4.70;99.90;;;;;;5154974;27;19926;-70
2022/01/25 13:56:04;;;;;;;;;;;4.70;99.90;;;;;;5174981;27;19991;-69
2022/01/25 13:58:32;;;;;;;;;;;4.70;99.90;;;;;;5156064;27;19995;-68
2022/01/25 14:00:59;;;;;;;;;;;4.70;99.90;;;;;;5149040;27;20382;-69
2022/01/25 14:03:26;;;;;;;;;;;4.70;99.90;;;;;;5153325;27;19923;-69
2022/01/25 14:05:52;;;;;;;;;;;4.70;99.90;;;;;;5154838;27;19948;-69
2022/01/25 14:08:30;;;;;;;;;;;4.70;99.90;;;;;;5164207;27;19922;-70
2022/01/25 14:10:59;;;;;;;;;;;4.60;99.90;;;;;;5156067;27;20399;-69
2022/01/25 14:21:58;;;;;;;;;;;4.60;99.90;;;;;;5172413;27;20022;-72
2022/01/25 14:24:30;;;;;;;;;;;4.60;99.90;;;;;;5153408;27;19923;-68
2022/01/25 14:26:58;;;;;;;;;;;4.60;99.90;;;;;;5135187;27;19979;-68
2022/01/25 14:29:24;;;;;;;;;;;4.50;99.90;;;;;;5117384;27;20328;-70
2022/01/25 14:31:50;;;;;;;;;;;4.30;99.90;;;;;;5135116;27;19930;-69
2022/01/25 14:34:18;;;;;;;;;;;4.60;99.90;;;;;;5172314;27;19955;-69
2022/01/25 14:36:47;;;;;;;;;;;4.60;99.90;;;;;;5172590;27;19923;-68
2022/01/25 14:39:16;;;;;;;;;;;4.60;99.90;;;;;;5155543;27;20271;-76
2022/01/25 14:41:41;;;;;;;;;;;4.50;99.90;;;;;;5162595;27;19923;-70
2022/01/25 14:44:08;;;;;;;;;;;4.60;99.90;;;;;;5142089;27;20220;-70
2022/01/25 14:46:37;;;;;;;;;;;4.60;99.90;;;;;;5153777;27;20395;-70
2022/01/25 14:49:05;;;;;;;;;;;4.60;99.90;;;;;;5173778;27;19978;-69
2022/01/25 14:51:41;;;;;;;;;;;4.50;99.90;;;;;;5173315;27;20013;-70
2022/01/25 14:54:08;;;;;;;;;;;4.50;99.90;;;;;;5150162;27;19985;-69
2022/01/25 14:56:35;;;;;;;;;;;4.50;99.90;;;;;;5133835;27;19954;-69
2022/01/25 15:01:33;;;;;;;;;;;4.50;99.90;;;;;;5153113;27;19923;-70
2022/01/25 15:03:59;;;;;;;;;;;4.40;99.90;;;;;;5123204;27;19946;-69
2022/01/25 15:06:24;;;;;;;;;;;4.40;99.90;;;;;;5153553;27;19922;-69
2022/01/25 15:08:52;;;;;;;;;;;4.50;99.90;;;;;;5118538;27;20383;-71
2022/01/25 15:11:18;;;;;;;;;;;4.40;99.90;;;;;;5117694;27;19923;-71
2022/01/25 15:13:44;;;;;;;;;;;4.50;99.90;;;;;;5135636;27;19968;-69
2022/01/25 15:16:10;;;;;;;;;;;4.40;99.90;;;;;;5155747;27;19926;-69
2022/01/25 15:18:38;;;;;;;;;;;4.50;99.90;;;;;;5172548;27;20427;-69
2022/01/25 15:21:04;;;;;;;;;;;4.50;99.90;;;;;;5134829;27;19966;-68
2022/01/25 15:23:33;;;;;;;;;;;4.50;99.90;;;;;;5133516;27;19927;-68
2022/01/25 15:26:03;;;;;;;;;;;4.90;99.90;;;;;;5135072;27;19923;-69
2022/01/25 15:28:42;;;;;;;;;;;4.40;99.90;;;;;;5131132;27;19927;-69
2022/01/25 15:31:09;;;;;;;;;;;4.40;99.90;;;;;;5154503;27;19946;-69
2022/01/25 15:33:35;;;;;;;;;;;4.40;99.90;;;;;;5137644;27;20258;-68
2022/01/25 15:36:01;;;;;;;;;;;4.40;99.90;;;;;;5161706;27;19927;-69
2022/01/25 15:38:26;;;;;;;;;;;4.40;99.90;;;;;;5157689;27;19986;-69
2022/01/25 15:40:52;;;;;;;;;;;4.40;99.90;;;;;;5177216;27;19967;-68
2022/01/25 15:43:23;;;;;;;;;;;4.40;99.90;;;;;;5177927;27;19929;-69
2022/01/25 15:46:07;;;;;;;;;;;4.40;99.90;;;;;;5170362;27;19923;-69
2022/01/25 15:48:33;;;;;;;;;;;4.40;99.90;;;;;;5159639;27;19923;-69
2022/01/25 15:50:59;;;;;;;;;;;4.40;99.90;;;;;;5158589;27;19930;-69
2022/01/25 15:53:25;;;;;;;;;;;4.50;99.90;;;;;;5141330;27;19994;-69
2022/01/25 15:55:51;;;;;;;;;;;4.40;99.90;;;;;;5175925;27;19999;-69
2022/01/25 15:58:17;;;;;;;;;;;4.40;99.90;;;;;;5176211;27;20428;-72
2022/01/25 16:00:47;;;;;;;;;;;4.40;99.90;;;;;;5157574;27;19919;-69
2022/01/25 16:03:17;;;;;;;;;;;4.30;99.90;;;;;;5157729;27;19968;-69
2022/01/25 16:05:43;;;;;;;;;;;4.40;99.90;;;;;;5137676;27;19919;-69
2022/01/25 16:08:09;;;;;;;;;;;4.30;99.90;;;;;;5136222;27;19923;-69
2022/01/25 16:10:35;;;;;;;;;;;4.30;99.90;;;;;;5152188;27;19923;-68
2022/01/25 16:13:01;;;;;;;;;;;4.30;99.90;;;;;;5177144;27;19923;-68
2022/01/25 16:15:26;;;;;;;;;;;4.40;99.90;;;;;;5157593;27;19930;-71
2022/01/25 16:17:52;;;;;;;;;;;4.30;99.90;;;;;;5176172;27;19927;-68
2022/01/25 16:20:18;;;;;;;;;;;4.30;99.90;;;;;;5150284;27;19923;-68
2022/01/25 16:22:43;;;;;;;;;;;4.30;99.90;;;;;;5140809;27;19937;-68
2022/01/25 16:25:09;;;;;;;;;;;4.30;99.90;;;;;;5137345;27;19931;-70
2022/01/25 16:27:37;;;;;;;;;;;4.30;99.90;;;;;;5140554;27;19972;-68
2022/01/25 16:30:03;;;;;;;;;;;4.30;99.90;;;;;;5159015;27;19935;-69
2022/01/25 16:32:34;;;;;;;;;;;4.40;99.90;;;;;;5160963;27;19938;-69